Terminal Aerodrome Forecast
Issued by NWS

Home | Current Version | Previous Version | Text Only | Print | Product List | Glossary On
Versions: 1 2 3 4 5 6 7 8 9 10 11 12 13 14 15 16 17
492
FTUS46 KMTR 131454 AAA
TAFSTS
TAF AMD
KSTS 131454Z 1315/1412 30003KT P6SM BCFG SCT150
      TEMPO 1315/1318 1SM BR VV001
     FM131800 VRB04KT P6SM SKC
     FM132200 31009KT P6SM SKC
     FM140200 34010KT P6SM SKC
     FM140400 35006KT P6SM SKC
     FM140900 35006KT 1/4SM FG VV001=

USA.gov is the U.S. government's official web portal to all federal, state and local government web resources and services.